createdAt,value
2017-08-30T00:02:07.036Z,19.60
2017-08-30T00:04:34.345Z,21.47
2017-08-30T00:07:01.660Z,20.50
2017-08-30T00:09:28.970Z,19.07
2017-08-30T00:11:56.285Z,20.10
2017-08-30T00:14:23.622Z,22.90
2017-08-30T00:16:50.972Z,22.50
2017-08-30T00:19:18.302Z,22.70
2017-08-30T00:21:45.612Z,22.43
2017-08-30T00:24:13.074Z,20.80
2017-08-30T00:26:40.393Z,18.97
2017-08-30T00:29:07.926Z,19.57
2017-08-30T00:31:35.253Z,22.50
2017-08-30T00:34:02.574Z,19.60
2017-08-30T00:36:29.909Z,19.90
2017-08-30T00:38:57.244Z,20.30
2017-08-30T00:41:24.580Z,20.27
2017-08-30T00:43:51.921Z,18.93
2017-08-30T00:46:19.266Z,25.10
2017-08-30T00:48:46.631Z,22.93
2017-08-30T00:51:13.928Z,23.13
2017-08-30T00:53:41.259Z,22.20
2017-08-30T00:56:08.571Z,20.50
2017-08-30T00:58:35.884Z,23.40
2017-08-30T01:01:03.198Z,22.00
2017-08-30T01:03:30.521Z,21.80
2017-08-30T01:05:57.841Z,19.13
2017-08-30T01:08:25.189Z,19.57
2017-08-30T01:10:52.521Z,19.83
2017-08-30T01:13:19.877Z,20.47
2017-08-30T01:15:47.206Z,27.83
2017-08-30T01:18:14.574Z,23.33
2017-08-30T01:20:41.885Z,21.50
2017-08-30T01:23:09.234Z,27.43
2017-08-30T01:25:36.581Z,18.50
2017-08-30T01:28:03.966Z,22.30
2017-08-30T01:30:31.265Z,21.23
2017-08-30T01:32:58.626Z,22.00
2017-08-30T01:35:25.937Z,24.37
2017-08-30T01:37:53.273Z,24.77
2017-08-30T01:40:20.674Z,23.20
2017-08-30T01:42:47.962Z,21.37
2017-08-30T01:45:15.301Z,25.53
2017-08-30T01:47:42.633Z,23.43
2017-08-30T01:50:09.999Z,22.37
2017-08-30T01:52:37.321Z,20.17
2017-08-30T01:55:04.639Z,20.90
2017-08-30T01:57:31.936Z,22.03
2017-08-30T01:59:59.264Z,22.70
2017-08-30T02:02:26.572Z,20.73
2017-08-30T02:04:53.950Z,22.67
2017-08-30T02:07:21.262Z,22.33
2017-08-30T02:09:48.612Z,23.97
2017-08-30T02:12:15.948Z,26.87
2017-08-30T02:14:43.315Z,22.03
2017-08-30T02:17:10.630Z,23.17
2017-08-30T02:19:37.984Z,24.23
2017-08-30T02:22:05.310Z,23.30
2017-08-30T02:24:32.641Z,24.80
2017-08-30T02:26:59.966Z,22.80
2017-08-30T02:29:27.289Z,23.73
2017-08-30T02:31:54.588Z,22.90
2017-08-30T02:34:21.928Z,23.30
2017-08-30T02:36:49.562Z,25.70
2017-08-30T02:39:16.904Z,25.30
2017-08-30T02:41:44.268Z,27.97
2017-08-30T02:44:11.580Z,25.80
2017-08-30T02:46:40.153Z,25.93
2017-08-30T02:49:07.475Z,22.00
2017-08-30T02:51:34.789Z,25.40
2017-08-30T02:54:02.092Z,22.93
2017-08-30T02:56:29.742Z,23.97
2017-08-30T02:58:57.067Z,24.60
2017-08-30T03:01:24.442Z,21.90
2017-08-30T03:03:51.755Z,24.83
2017-08-30T03:06:19.096Z,22.83
2017-08-30T03:08:46.406Z,30.60
2017-08-30T03:11:13.987Z,28.23
2017-08-30T03:13:41.335Z,20.80
2017-08-30T03:16:09.714Z,21.93
2017-08-30T03:18:37.050Z,25.30
2017-08-30T03:21:04.419Z,24.10
2017-08-30T03:23:31.699Z,24.57
2017-08-30T03:25:59.029Z,23.07
2017-08-30T03:28:26.338Z,23.87
2017-08-30T03:30:53.657Z,24.40
2017-08-30T03:33:20.982Z,24.03
2017-08-30T03:35:48.344Z,24.53
2017-08-30T03:38:15.654Z,23.30
2017-08-30T03:40:42.984Z,24.20
2017-08-30T03:43:10.301Z,21.50
2017-08-30T03:45:37.618Z,24.07
2017-08-30T03:48:04.938Z,23.77
2017-08-30T03:50:32.270Z,25.47
2017-08-30T03:52:59.638Z,24.23
2017-08-30T03:55:27.233Z,26.83
2017-08-30T03:57:54.552Z,22.60
2017-08-30T04:00:21.871Z,21.50
2017-08-30T04:02:49.180Z,26.83
2017-08-30T04:05:16.492Z,27.23
2017-08-30T04:07:44.090Z,22.43
2017-08-30T04:10:11.414Z,24.00
2017-08-30T04:12:38.800Z,22.43
2017-08-30T04:15:06.122Z,24.10
2017-08-30T04:17:33.756Z,22.00
2017-08-30T04:20:01.077Z,24.37
2017-08-30T04:22:28.410Z,25.17
2017-08-30T04:24:55.779Z,22.97
2017-08-30T04:27:23.085Z,20.30
2017-08-30T04:29:50.419Z,26.40
2017-08-30T04:32:17.712Z,22.43
2017-08-30T04:34:45.028Z,23.63
2017-08-30T04:37:12.344Z,20.77
2017-08-30T04:39:39.664Z,23.57
2017-08-30T04:42:06.973Z,27.70
2017-08-30T04:44:34.296Z,20.47
2017-08-30T04:47:01.626Z,25.53
2017-08-30T04:49:28.986Z,23.30
2017-08-30T04:51:56.591Z,20.70
2017-08-30T04:54:23.904Z,20.50
2017-08-30T04:56:51.209Z,24.63
2017-08-30T04:59:18.528Z,20.30
2017-08-30T05:01:45.865Z,20.70
2017-08-30T05:04:13.200Z,18.27
2017-08-30T05:06:40.519Z,22.90
2017-08-30T05:09:07.831Z,19.47
2017-08-30T05:11:35.182Z,19.77
2017-08-30T05:14:02.498Z,20.13
2017-08-30T05:16:29.849Z,22.00
2017-08-30T05:18:57.157Z,20.77
2017-08-30T05:21:24.543Z,22.13
2017-08-30T05:23:51.857Z,21.93
2017-08-30T05:26:19.492Z,22.30
2017-08-30T05:28:46.834Z,20.30
2017-08-30T05:31:14.189Z,23.37
2017-08-30T05:33:41.504Z,20.97
2017-08-30T05:36:08.840Z,19.93
2017-08-30T05:38:36.175Z,20.80
2017-08-30T05:41:03.488Z,22.00
2017-08-30T05:43:30.792Z,23.83
2017-08-30T05:45:58.165Z,20.50
2017-08-30T05:48:25.474Z,25.43
2017-08-30T05:50:52.821Z,25.13
2017-08-30T05:53:20.153Z,18.23
2017-08-30T05:55:47.500Z,21.90
2017-08-30T05:58:14.818Z,20.43
2017-08-30T06:00:42.181Z,17.83
2017-08-30T06:03:09.922Z,20.03
2017-08-30T06:05:37.298Z,21.27
2017-08-30T06:08:04.619Z,18.10
2017-08-30T06:10:31.951Z,20.30
2017-08-30T06:12:59.307Z,22.83
2017-08-30T06:15:26.745Z,24.83
2017-08-30T06:17:54.076Z,18.70
2017-08-30T06:20:22.325Z,19.17
2017-08-30T06:22:49.714Z,19.27
2017-08-30T06:25:17.024Z,22.77
2017-08-30T06:27:44.389Z,24.10
2017-08-30T06:30:11.701Z,21.40
2017-08-30T06:32:39.052Z,19.80
2017-08-30T06:35:06.785Z,18.00
2017-08-30T06:37:34.153Z,21.97
2017-08-30T06:40:01.485Z,19.80
2017-08-30T06:42:28.838Z,20.10
2017-08-30T06:44:56.136Z,22.70
2017-08-30T06:47:23.464Z,55.53
2017-08-30T06:49:50.814Z,35.97
2017-08-30T06:52:18.146Z,23.13
2017-08-30T06:54:45.466Z,22.10
2017-08-30T06:57:12.788Z,19.77
2017-08-30T06:59:40.085Z,22.50
2017-08-30T07:02:07.424Z,29.90
2017-08-30T07:04:34.733Z,22.40
2017-08-30T07:07:02.042Z,22.43
2017-08-30T07:09:29.373Z,24.03
2017-08-30T07:11:56.693Z,31.27
2017-08-30T07:14:24.048Z,23.43
2017-08-30T07:16:51.373Z,19.43
2017-08-30T07:19:18.696Z,23.43
2017-08-30T07:21:46.006Z,25.00
2017-08-30T07:24:13.327Z,20.60
2017-08-30T07:26:40.637Z,22.47
2017-08-30T07:29:07.958Z,25.63
2017-08-30T07:31:35.266Z,18.17
2017-08-30T07:34:02.588Z,14.50
2017-08-30T07:36:29.910Z,18.33
2017-08-30T07:38:57.572Z,17.87
2017-08-30T07:41:24.888Z,17.83
2017-08-30T07:43:52.253Z,19.13
2017-08-30T07:46:19.573Z,19.77
2017-08-30T07:48:46.901Z,19.40
2017-08-30T07:51:14.207Z,19.33
2017-08-30T07:53:41.550Z,15.77
2017-08-30T07:56:08.860Z,16.30
2017-08-30T07:58:36.207Z,14.20
2017-08-30T08:01:03.562Z,18.03
2017-08-30T08:03:30.895Z,15.97
2017-08-30T08:05:58.208Z,18.00
2017-08-30T08:08:25.574Z,18.57
2017-08-30T08:10:52.900Z,17.87
2017-08-30T08:13:20.564Z,18.83
2017-08-30T08:15:47.886Z,17.67
2017-08-30T08:18:15.186Z,18.27
2017-08-30T08:20:42.516Z,16.37
2017-08-30T08:23:09.825Z,19.30
2017-08-30T08:25:37.163Z,23.33
2017-08-30T08:28:04.476Z,22.10
2017-08-30T08:30:31.836Z,15.70
2017-08-30T08:32:59.170Z,18.43
2017-08-30T08:35:26.525Z,16.60
2017-08-30T08:37:53.860Z,17.80
2017-08-30T08:40:21.206Z,16.90
2017-08-30T08:42:48.572Z,19.73
2017-08-30T08:45:15.894Z,22.93
2017-08-30T08:47:43.216Z,15.73
2017-08-30T08:50:10.575Z,16.80
2017-08-30T08:52:37.899Z,22.10
2017-08-30T08:55:05.260Z,14.40
2017-08-30T08:57:32.611Z,23.13
2017-08-30T08:59:59.979Z,17.17
2017-08-30T09:02:27.286Z,20.23
2017-08-30T09:04:54.626Z,21.80
2017-08-30T09:07:21.974Z,15.43
2017-08-30T09:09:49.291Z,16.40
2017-08-30T09:12:16.657Z,19.10
2017-08-30T09:14:43.970Z,22.80
2017-08-30T09:17:11.331Z,18.10
2017-08-30T09:19:38.650Z,20.17
2017-08-30T09:22:06.005Z,17.43
2017-08-30T09:24:33.342Z,18.40
2017-08-30T09:27:00.694Z,19.83
2017-08-30T09:29:28.030Z,17.03
2017-08-30T09:31:55.345Z,23.17
2017-08-30T09:34:22.654Z,16.50
2017-08-30T09:36:49.986Z,20.00
2017-08-30T09:39:17.384Z,21.77
2017-08-30T09:41:44.751Z,19.47
2017-08-30T09:44:12.059Z,21.00
2017-08-30T09:46:39.382Z,16.83
2017-08-30T09:49:06.676Z,17.40
2017-08-30T09:51:33.991Z,16.23
2017-08-30T09:54:01.313Z,17.90
2017-08-30T09:56:28.646Z,18.27
2017-08-30T09:58:56.079Z,20.47
2017-08-30T10:01:23.416Z,18.30
2017-08-30T10:03:50.748Z,15.37
2017-08-30T10:06:18.113Z,16.53
2017-08-30T10:08:45.430Z,13.20
2017-08-30T10:11:12.780Z,12.13
2017-08-30T10:13:40.125Z,12.03
2017-08-30T10:16:07.458Z,13.13
2017-08-30T10:18:34.834Z,11.10
2017-08-30T10:21:02.129Z,11.10
2017-08-30T10:23:29.489Z,15.10
2017-08-30T10:25:56.802Z,10.67
2017-08-30T10:28:24.126Z,15.40
2017-08-30T10:30:51.420Z,11.70
2017-08-30T10:33:18.754Z,11.33
2017-08-30T10:35:46.365Z,10.57
2017-08-30T10:38:13.672Z,11.43
2017-08-30T10:40:40.973Z,10.37
2017-08-30T10:43:08.321Z,10.73
2017-08-30T10:45:35.660Z,10.57
2017-08-30T10:48:03.024Z,13.60
2017-08-30T10:50:30.354Z,11.37
2017-08-30T10:52:57.690Z,11.13
2017-08-30T10:55:25.019Z,12.63
2017-08-30T10:57:52.339Z,11.20
2017-08-30T11:00:19.674Z,13.03
2017-08-30T11:02:46.965Z,11.73
2017-08-30T11:05:14.281Z,15.30
2017-08-30T11:07:41.599Z,14.07
2017-08-30T11:10:08.927Z,11.60
2017-08-30T11:12:37.226Z,10.07
2017-08-30T11:15:04.577Z,12.60
2017-08-30T11:17:31.898Z,11.60
2017-08-30T11:19:59.251Z,12.97
2017-08-30T11:22:26.582Z,11.97
2017-08-30T11:24:53.946Z,11.50
2017-08-30T11:27:21.260Z,12.67
2017-08-30T11:29:48.629Z,10.77
2017-08-30T11:32:15.923Z,12.47
2017-08-30T11:34:43.241Z,12.60
2017-08-30T11:37:10.544Z,13.73
2017-08-30T11:39:37.894Z,12.50
2017-08-30T11:42:05.197Z,10.73
2017-08-30T11:44:32.520Z,9.83
2017-08-30T11:46:59.817Z,12.80
2017-08-30T11:49:27.152Z,11.07
2017-08-30T11:51:54.458Z,10.73
2017-08-30T11:54:21.777Z,10.80
2017-08-30T11:56:49.088Z,10.20
2017-08-30T11:59:16.734Z,10.73
2017-08-30T12:01:44.054Z,10.70
2017-08-30T12:04:11.373Z,9.80
2017-08-30T12:06:38.699Z,11.10
2017-08-30T12:09:05.985Z,11.00
2017-08-30T12:11:33.326Z,12.13
2017-08-30T12:14:00.660Z,11.67
2017-08-30T12:16:28.001Z,16.40
2017-08-30T12:18:55.312Z,9.80
2017-08-30T12:21:22.639Z,11.07
2017-08-30T12:23:49.928Z,10.07
2017-08-30T12:26:17.251Z,9.97
2017-08-30T12:28:44.585Z,9.17
2017-08-30T12:31:11.916Z,10.80
2017-08-30T12:33:39.196Z,9.93
2017-08-30T12:36:06.520Z,10.53
2017-08-30T12:38:39.629Z,10.07
2017-08-30T12:41:06.944Z,9.00
2017-08-30T12:43:34.272Z,11.27
2017-08-30T12:46:01.639Z,10.30
2017-08-30T12:48:29.065Z,9.83
2017-08-30T12:50:56.404Z,10.90
2017-08-30T12:53:23.746Z,12.10
2017-08-30T12:55:51.070Z,9.23
2017-08-30T12:58:18.391Z,10.80
2017-08-30T13:00:45.703Z,9.33
2017-08-30T13:03:13.014Z,8.93
2017-08-30T13:05:40.350Z,8.40
2017-08-30T13:08:07.700Z,9.60
2017-08-30T13:10:35.013Z,11.40
2017-08-30T13:13:02.333Z,8.33
2017-08-30T13:15:29.647Z,10.90
2017-08-30T13:17:56.949Z,9.97
2017-08-30T13:20:24.290Z,8.43
2017-08-30T13:22:51.589Z,9.90
2017-08-30T13:25:18.884Z,8.27
2017-08-30T13:27:46.209Z,8.70
2017-08-30T13:30:13.965Z,9.47
2017-08-30T13:32:41.303Z,8.00
2017-08-30T13:35:08.657Z,9.50
2017-08-30T13:37:35.981Z,8.03
2017-08-30T13:40:03.299Z,11.63
2017-08-30T13:42:30.629Z,8.53
2017-08-30T13:44:57.953Z,8.63
2017-08-30T13:47:25.249Z,10.33
2017-08-30T13:49:52.593Z,7.53
2017-08-30T13:52:19.918Z,8.90
2017-08-30T13:54:47.229Z,8.07
2017-08-30T13:57:14.516Z,7.90
2017-08-30T13:59:41.844Z,8.13
2017-08-30T14:02:09.181Z,8.80
2017-08-30T14:04:36.554Z,10.03
2017-08-30T14:07:03.900Z,14.60
2017-08-30T14:09:31.238Z,11.77
2017-08-30T14:11:58.550Z,7.30
2017-08-30T14:14:25.872Z,7.30
2017-08-30T14:16:53.182Z,7.93
2017-08-30T14:19:20.503Z,9.13
2017-08-30T14:21:47.819Z,7.10
2017-08-30T14:24:15.127Z,9.33
2017-08-30T14:26:42.412Z,11.17
2017-08-30T14:29:09.771Z,10.70
2017-08-30T14:31:37.107Z,7.63
2017-08-30T14:34:04.408Z,7.57
2017-08-30T14:36:31.712Z,8.47
2017-08-30T14:38:59.001Z,7.40
2017-08-30T14:41:26.359Z,6.90
2017-08-30T14:43:53.870Z,9.43
2017-08-30T14:46:21.535Z,11.10
2017-08-30T14:48:48.946Z,6.77
2017-08-30T14:54:11.806Z,7.00
2017-08-30T14:56:39.127Z,6.53
2017-08-30T14:59:06.475Z,6.12
2017-08-30T15:01:33.823Z,6.12
2017-08-30T15:04:01.137Z,7.65
2017-08-30T15:06:28.459Z,7.20
2017-08-30T15:08:55.740Z,5.93
2017-08-30T15:11:23.076Z,5.95
2017-08-30T15:13:50.422Z,5.65
2017-08-30T15:16:17.755Z,8.57
2017-08-30T15:18:45.103Z,6.90
2017-08-30T15:21:12.441Z,7.40
2017-08-30T15:23:39.787Z,5.65
2017-08-30T15:26:07.358Z,5.12
2017-08-30T15:28:34.664Z,5.53
2017-08-30T15:31:01.965Z,6.80
2017-08-30T15:33:29.273Z,6.50
2017-08-30T15:35:56.587Z,7.07
2017-08-30T15:38:23.902Z,5.78
2017-08-30T15:40:51.210Z,6.50
2017-08-30T15:43:18.546Z,10.30
2017-08-30T15:45:45.840Z,6.97
2017-08-30T15:48:13.311Z,5.45
2017-08-30T15:50:40.628Z,5.78
2017-08-30T15:53:07.949Z,5.72
2017-08-30T15:55:35.255Z,5.75
2017-08-30T15:58:02.579Z,6.82
2017-08-30T16:00:29.883Z,6.90
2017-08-30T16:02:57.216Z,5.20
2017-08-30T16:05:24.512Z,8.13
2017-08-30T16:07:51.837Z,5.87
2017-08-30T16:10:19.455Z,6.53
2017-08-30T16:12:46.791Z,5.70
2017-08-30T16:15:14.076Z,5.90
2017-08-30T16:17:41.407Z,6.40
2017-08-30T16:20:08.729Z,8.33
2017-08-30T16:22:36.021Z,9.17
2017-08-30T16:25:03.340Z,7.00
2017-08-30T16:27:30.698Z,8.83
2017-08-30T16:29:58.004Z,6.50
2017-08-30T16:32:25.337Z,6.73
2017-08-30T16:34:52.696Z,9.87
2017-08-30T16:37:20.039Z,6.87
2017-08-30T16:39:47.670Z,7.80
2017-08-30T16:42:15.004Z,9.90
2017-08-30T16:44:42.390Z,10.20
2017-08-30T16:47:09.692Z,9.60
2017-08-30T16:49:37.484Z,7.73
2017-08-30T16:52:04.791Z,10.20
2017-08-30T16:54:32.098Z,8.13
2017-08-30T16:56:59.389Z,6.70
2017-08-30T16:59:26.716Z,8.50
2017-08-30T17:01:54.056Z,14.80
2017-08-30T17:04:21.396Z,8.10
2017-08-30T17:06:48.751Z,9.37
2017-08-30T17:09:16.067Z,11.93
2017-08-30T17:11:43.394Z,9.70
2017-08-30T17:14:10.700Z,8.27
2017-08-30T17:16:37.993Z,8.97
2017-08-30T17:19:05.329Z,9.77
2017-08-30T17:21:32.658Z,9.03
2017-08-30T17:23:59.945Z,8.00
2017-08-30T17:26:27.261Z,11.83
2017-08-30T17:28:54.617Z,11.27
2017-08-30T17:31:21.952Z,15.90
2017-08-30T17:33:49.274Z,9.83
2017-08-30T17:36:16.606Z,10.47
2017-08-30T17:38:43.919Z,10.60
2017-08-30T17:41:11.414Z,10.27
2017-08-30T17:43:38.741Z,9.70
2017-08-30T17:46:06.058Z,10.60
2017-08-30T17:48:33.362Z,9.73
2017-08-30T17:51:00.673Z,9.77
2017-08-30T17:53:27.999Z,8.53
2017-08-30T17:55:55.361Z,10.57
2017-08-30T17:58:22.676Z,9.40
2017-08-30T18:00:50.139Z,7.60
2017-08-30T18:03:17.482Z,11.30
2017-08-30T18:05:44.822Z,12.20
2017-08-30T18:08:12.164Z,10.97
2017-08-30T18:10:39.489Z,9.70
2017-08-30T18:13:06.814Z,11.33
2017-08-30T18:15:34.277Z,10.33
2017-08-30T18:18:01.588Z,12.40
2017-08-30T18:20:28.893Z,15.43
2017-08-30T18:22:56.213Z,10.50
2017-08-30T18:25:23.527Z,10.67
2017-08-30T18:27:50.846Z,13.33
2017-08-30T18:30:18.145Z,12.77
2017-08-30T18:32:45.490Z,13.33
2017-08-30T18:35:12.821Z,14.83
2017-08-30T18:37:40.179Z,11.23
2017-08-30T18:40:07.490Z,15.63
2017-08-30T18:42:34.813Z,10.53
2017-08-30T18:45:02.110Z,13.73
2017-08-30T18:47:29.450Z,10.73
2017-08-30T18:49:56.739Z,9.90
2017-08-30T18:52:24.038Z,10.57
2017-08-30T18:54:51.362Z,9.30
2017-08-30T18:57:18.658Z,17.43
2017-08-30T18:59:45.985Z,9.87
2017-08-30T19:02:13.282Z,15.30
2017-08-30T19:04:40.611Z,11.30
2017-08-30T19:07:07.933Z,15.23
2017-08-30T19:09:35.250Z,14.40
2017-08-30T19:12:02.559Z,10.87
2017-08-30T19:14:29.887Z,11.43
2017-08-30T19:16:57.187Z,10.00
2017-08-30T19:19:24.505Z,10.07
2017-08-30T19:21:51.827Z,11.90
2017-08-30T19:24:19.454Z,9.10
2017-08-30T19:26:47.072Z,9.90
2017-08-30T19:29:14.386Z,10.23
2017-08-30T19:31:41.672Z,11.30
2017-08-30T19:34:08.996Z,16.47
2017-08-30T19:36:36.324Z,10.30
2017-08-30T19:39:03.646Z,14.30
2017-08-30T19:41:31.115Z,10.60
2017-08-30T19:43:58.424Z,11.63
2017-08-30T19:46:25.734Z,12.63
2017-08-30T19:48:53.043Z,8.97
2017-08-30T19:51:20.371Z,13.67
2017-08-30T19:53:47.669Z,10.53
2017-08-30T19:56:14.989Z,12.73
2017-08-30T19:58:42.320Z,9.27
2017-08-30T20:01:09.997Z,10.40
2017-08-30T20:03:37.599Z,9.97
2017-08-30T20:06:04.927Z,10.03
2017-08-30T20:08:32.231Z,13.13
2017-08-30T20:10:59.553Z,10.17
2017-08-30T20:13:26.865Z,7.83
2017-08-30T20:15:55.024Z,10.87
2017-08-30T20:18:22.321Z,10.63
2017-08-30T20:20:49.626Z,12.20
2017-08-30T20:23:16.950Z,15.33
2017-08-30T20:25:44.354Z,10.87
2017-08-30T20:28:12.033Z,7.23
2017-08-30T20:30:39.340Z,11.53
2017-08-30T20:33:06.646Z,8.90
2017-08-30T20:35:34.294Z,16.40
2017-08-30T20:38:01.621Z,10.30
2017-08-30T20:40:28.955Z,7.47
2017-08-30T20:42:56.290Z,9.20
2017-08-30T20:45:23.601Z,9.63
2017-08-30T20:47:50.923Z,8.10
2017-08-30T20:50:18.232Z,8.03
2017-08-30T20:52:45.571Z,8.53
2017-08-30T20:55:12.911Z,8.23
2017-08-30T20:57:40.253Z,12.13
2017-08-30T21:00:07.796Z,9.27
2017-08-30T21:02:35.582Z,8.80
2017-08-30T21:05:02.882Z,8.93
2017-08-30T21:07:30.224Z,12.33
2017-08-30T21:09:57.557Z,10.37
2017-08-30T21:12:24.905Z,8.83
2017-08-30T21:14:52.245Z,9.77
2017-08-30T21:17:19.607Z,8.20
2017-08-30T21:19:47.212Z,11.17
2017-08-30T21:22:14.548Z,12.30
2017-08-30T21:24:42.398Z,8.30
2017-08-30T21:27:09.691Z,9.93
2017-08-30T21:29:37.539Z,13.03
2017-08-30T21:32:04.855Z,9.90
2017-08-30T21:34:32.166Z,10.57
2017-08-30T21:36:59.462Z,9.17
2017-08-30T21:39:26.806Z,14.37
2017-08-30T21:41:54.126Z,8.77
2017-08-30T21:44:21.485Z,13.47
2017-08-30T21:46:49.104Z,11.40
2017-08-30T21:49:16.423Z,9.50
2017-08-30T21:51:43.721Z,12.23
2017-08-30T21:54:11.032Z,11.23
2017-08-30T21:56:38.387Z,14.60
2017-08-30T21:59:05.729Z,11.70
2017-08-30T22:01:33.056Z,9.40
2017-08-30T22:04:00.379Z,12.80
2017-08-30T22:06:27.820Z,10.07
2017-08-30T22:08:55.141Z,11.03
2017-08-30T22:11:22.445Z,10.03
2017-08-30T22:13:49.787Z,12.00
2017-08-30T22:16:17.113Z,11.43
2017-08-30T22:18:44.462Z,9.77
2017-08-30T22:21:11.819Z,11.10
2017-08-30T22:23:39.111Z,12.17
2017-08-30T22:26:06.442Z,11.87
2017-08-30T22:28:33.758Z,12.00
2017-08-30T22:31:01.081Z,9.60
2017-08-30T22:33:28.383Z,11.17
2017-08-30T22:35:55.698Z,11.23
2017-08-30T22:38:23.013Z,15.63
2017-08-30T22:40:50.338Z,10.27
2017-08-30T22:43:17.654Z,10.20
2017-08-30T22:45:44.999Z,10.53
2017-08-30T22:48:12.541Z,11.13
2017-08-30T22:50:39.875Z,11.10
2017-08-30T22:53:07.187Z,12.57
2017-08-30T22:55:34.509Z,11.10
2017-08-30T22:58:01.812Z,11.20
2017-08-30T23:00:29.163Z,11.60
2017-08-30T23:02:56.492Z,14.90
2017-08-30T23:05:23.823Z,10.37
2017-08-30T23:07:51.135Z,11.73
2017-08-30T23:10:18.454Z,11.40
2017-08-30T23:12:45.761Z,11.80
2017-08-30T23:15:13.093Z,15.03
2017-08-30T23:17:40.412Z,12.10
2017-08-30T23:20:07.980Z,16.57
2017-08-30T23:22:35.327Z,11.93
2017-08-30T23:25:02.680Z,13.10
2017-08-30T23:27:29.991Z,11.00
2017-08-30T23:29:57.323Z,14.83
2017-08-30T23:32:24.616Z,18.90
2017-08-30T23:34:51.926Z,16.90
2017-08-30T23:37:19.271Z,14.80
2017-08-30T23:39:46.597Z,11.00
2017-08-30T23:42:13.954Z,12.67
2017-08-30T23:44:41.278Z,12.50
2017-08-30T23:47:08.598Z,13.23
2017-08-30T23:49:35.897Z,12.90
2017-08-30T23:52:03.218Z,15.00
2017-08-30T23:54:31.036Z,11.67
2017-08-30T23:56:58.356Z,12.03
2017-08-30T23:59:25.665Z,11.13
